createdAt,value
2022-08-05T00:08:37.926Z,26.68
2022-08-05T00:18:39.272Z,26.91
2022-08-05T00:28:40.629Z,27.02
2022-08-05T00:38:42.363Z,27.00
2022-08-05T00:48:51.396Z,26.80
2022-08-05T00:58:52.915Z,26.86
2022-08-05T01:08:55.003Z,26.72
2022-08-05T01:18:56.752Z,26.56
2022-08-05T01:28:58.159Z,26.33
2022-08-05T01:39:05.791Z,26.22
2022-08-05T01:49:22.661Z,26.17
2022-08-05T01:59:26.028Z,26.10
2022-08-05T02:09:27.394Z,25.83
2022-08-05T02:19:34.200Z,25.67
2022-08-05T02:29:58.434Z,25.68
2022-08-05T02:39:57.534Z,25.41
2022-08-05T02:49:58.875Z,25.48
2022-08-05T03:00:02.207Z,25.25
2022-08-05T03:10:03.584Z,25.43
2022-08-05T03:20:05.379Z,25.28
2022-08-05T03:30:09.102Z,24.64
2022-08-05T03:40:11.869Z,24.36
2022-08-05T03:50:13.487Z,24.22
2022-08-05T04:00:16.415Z,23.76
2022-08-05T04:10:17.961Z,23.53
2022-08-05T04:20:20.030Z,23.59
2022-08-05T04:30:21.335Z,24.09
2022-08-05T04:40:22.692Z,24.27
2022-08-05T04:50:37.294Z,24.16
2022-08-05T05:00:45.573Z,24.26
2022-08-05T05:10:55.899Z,24.62
2022-08-05T05:20:58.574Z,25.18
2022-08-05T05:31:00.111Z,25.25
2022-08-05T05:41:01.926Z,25.12
2022-08-05T05:51:15.168Z,25.18
2022-08-05T06:01:17.269Z,25.05
2022-08-05T06:11:24.721Z,25.08
2022-08-05T06:21:36.668Z,25.11
2022-08-05T06:31:39.163Z,25.30
2022-08-05T06:41:43.374Z,25.52
2022-08-05T06:51:45.092Z,25.85
2022-08-05T07:01:46.427Z,26.41
2022-08-05T07:11:55.837Z,26.51
2022-08-05T07:22:02.734Z,26.85
2022-08-05T07:32:04.110Z,26.59
2022-08-05T07:42:08.574Z,27.20
2022-08-05T07:52:16.213Z,27.28
2022-08-05T08:02:19.451Z,27.54
2022-08-05T08:12:48.705Z,28.35
2022-08-05T08:22:49.464Z,28.19
2022-08-05T08:32:51.169Z,27.57
2022-08-05T08:42:52.828Z,27.14
2022-08-05T08:52:54.485Z,27.85
2022-08-05T09:02:57.103Z,27.89
2022-08-05T09:13:04.980Z,27.64
2022-08-05T09:23:07.831Z,28.29
2022-08-05T09:33:10.677Z,28.64
2022-08-05T09:43:18.427Z,28.77
2022-08-05T09:53:25.964Z,28.92
2022-08-05T10:03:58.606Z,28.81
2022-08-05T10:14:00.569Z,28.61
2022-08-05T10:24:04.129Z,29.09
2022-08-05T10:34:08.961Z,28.87
2022-08-05T10:44:10.315Z,29.17
2022-08-05T10:54:28.606Z,29.87
2022-08-05T11:04:34.373Z,30.10
2022-08-05T11:26:03.374Z,29.48
2022-08-05T11:35:21.623Z,29.97
2022-08-05T11:46:30.601Z,29.44
2022-08-05T11:55:48.769Z,29.69
2022-08-05T12:05:54.752Z,29.54
2022-08-05T12:15:57.118Z,29.90
2022-08-05T12:25:59.690Z,30.06
2022-08-05T12:36:01.058Z,30.11
2022-08-05T12:46:02.445Z,29.83
2022-08-05T12:56:03.935Z,29.42
2022-08-05T13:06:05.530Z,29.63
2022-08-05T13:16:06.790Z,29.29
2022-08-05T13:26:12.027Z,29.13
2022-08-05T13:36:15.141Z,28.82
2022-08-05T13:46:35.745Z,28.70
2022-08-05T13:56:38.377Z,28.70
2022-08-05T14:06:39.703Z,28.41
2022-08-05T14:16:51.123Z,28.60
2022-08-05T14:27:17.213Z,28.78
2022-08-05T14:37:17.970Z,29.23
2022-08-05T14:47:58.277Z,29.17
2022-08-05T14:57:54.302Z,28.63
2022-08-05T15:08:06.502Z,28.45
2022-08-05T15:18:14.729Z,28.45
2022-08-05T15:28:18.787Z,28.32
2022-08-05T15:38:35.815Z,28.44
2022-08-05T15:48:38.059Z,27.95
2022-08-05T15:58:56.208Z,27.69
2022-08-05T16:08:57.988Z,27.31
2022-08-05T16:18:59.421Z,25.37
2022-08-05T16:29:01.693Z,25.02
2022-08-05T16:39:03.588Z,24.41
2022-08-05T16:49:05.942Z,24.45
2022-08-05T16:59:08.932Z,24.17
2022-08-05T17:09:10.243Z,23.92
2022-08-05T17:19:11.856Z,23.80
2022-08-05T17:29:13.371Z,23.46
2022-08-05T17:39:23.668Z,23.51
2022-08-05T17:49:25.954Z,23.21
2022-08-05T17:59:52.795Z,23.50
2022-08-05T18:10:09.990Z,23.19
2022-08-05T18:20:14.871Z,23.09
2022-08-05T18:30:16.364Z,22.41
2022-08-05T18:40:34.425Z,22.43
2022-08-05T18:52:03.340Z,22.22
2022-08-05T19:01:19.446Z,22.39
2022-08-05T19:11:37.064Z,22.11
2022-08-05T19:21:56.193Z,22.41
2022-08-05T19:32:00.239Z,22.06
2022-08-05T19:42:07.823Z,22.11
2022-08-05T19:52:40.301Z,22.25
2022-08-05T20:02:33.501Z,22.12
2022-08-05T20:12:37.294Z,22.11
2022-08-05T20:22:38.599Z,22.29
2022-08-05T20:32:45.101Z,22.16
2022-08-05T20:42:46.935Z,22.09
2022-08-05T20:52:48.330Z,21.95
2022-08-05T21:02:57.046Z,21.84
2022-08-05T21:13:11.202Z,21.73
2022-08-05T21:23:16.088Z,21.64
2022-08-05T21:33:22.267Z,21.60
2022-08-05T21:43:25.154Z,21.52
2022-08-05T21:53:27.509Z,21.40
2022-08-05T22:03:48.285Z,21.45
2022-08-05T22:14:19.586Z,21.23
2022-08-05T22:24:40.533Z,21.07
2022-08-05T22:34:42.424Z,20.96
2022-08-05T22:44:48.496Z,20.83
2022-08-05T22:54:58.207Z,20.64
2022-08-05T23:05:01.607Z,20.39
2022-08-05T23:15:08.455Z,20.35
2022-08-05T23:25:11.488Z,20.43
2022-08-05T23:35:12.840Z,20.30
2022-08-05T23:45:15.835Z,20.08
2022-08-05T23:55:17.275Z,19.96
